createdAt,value
2022-12-14T00:01:41.151Z,0.50
2022-12-14T00:04:08.140Z,0.50
2022-12-14T00:06:35.199Z,0.50
2022-12-14T00:09:04.497Z,0.60
2022-12-14T00:11:34.222Z,0.60
2022-12-14T00:14:03.208Z,0.50
2022-12-14T00:16:32.685Z,0.50
2022-12-14T00:19:01.355Z,0.50
2022-12-14T00:21:28.651Z,0.50
2022-12-14T00:23:57.507Z,0.60
2022-12-14T00:26:26.867Z,0.60
2022-12-14T00:28:55.560Z,0.70
2022-12-14T00:31:23.580Z,0.70
2022-12-14T00:33:51.254Z,0.80
2022-12-14T00:36:19.196Z,0.70
2022-12-14T00:38:46.370Z,0.70
2022-12-14T00:41:13.652Z,0.70
2022-12-14T00:43:40.853Z,0.70
2022-12-14T00:46:08.220Z,0.70
2022-12-14T00:48:35.380Z,0.70
2022-12-14T00:51:02.576Z,0.70
2022-12-14T00:53:29.539Z,0.70
2022-12-14T00:55:56.440Z,0.60
2022-12-14T00:58:25.117Z,0.60
2022-12-14T01:01:04.032Z,0.60
2022-12-14T01:03:31.852Z,0.60
2022-12-14T01:05:59.401Z,0.60
2022-12-14T01:08:26.441Z,0.50
2022-12-14T01:10:53.424Z,0.40
2022-12-14T01:13:20.432Z,0.40
2022-12-14T01:15:47.432Z,0.40
2022-12-14T01:18:14.867Z,0.40
2022-12-14T01:20:41.767Z,0.40
2022-12-14T01:23:08.727Z,0.50
2022-12-14T01:25:35.736Z,0.50
2022-12-14T01:28:02.713Z,0.50
2022-12-14T01:30:29.635Z,0.60
2022-12-14T01:32:56.558Z,0.60
2022-12-14T01:35:23.493Z,0.50
2022-12-14T01:37:50.459Z,0.40
2022-12-14T01:40:17.973Z,0.40
2022-12-14T01:42:44.948Z,0.30
2022-12-14T01:45:22.405Z,0.40
2022-12-14T01:48:01.862Z,0.40
2022-12-14T01:50:55.137Z,0.40
2022-12-14T01:53:24.346Z,0.30
2022-12-14T01:55:55.435Z,0.30
2022-12-14T01:58:24.554Z,0.30
2022-12-14T02:00:56.604Z,0.20
2022-12-14T02:03:31.226Z,0.20
2022-12-14T02:06:12.774Z,0.20
2022-12-14T02:08:41.344Z,0.30
2022-12-14T02:11:08.267Z,0.30
2022-12-14T02:13:40.637Z,0.30
2022-12-14T02:16:08.355Z,0.30
2022-12-14T02:18:35.430Z,0.40
2022-12-14T02:21:14.775Z,0.50
2022-12-14T02:23:44.570Z,0.50
2022-12-14T02:26:23.532Z,0.60
2022-12-14T02:29:02.849Z,0.60
2022-12-14T02:32:09.956Z,0.50
2022-12-14T02:34:51.829Z,0.50
2022-12-14T02:37:34.741Z,0.40
2022-12-14T02:40:34.573Z,0.30
2022-12-14T02:43:16.468Z,0.20
2022-12-14T02:46:03.451Z,0.20
2022-12-14T02:48:37.191Z,0.20
2022-12-14T02:51:18.521Z,0.20
2022-12-14T02:54:02.669Z,0.30
2022-12-14T02:56:56.674Z,0.10
2022-12-14T02:59:24.664Z,0.10
2022-12-14T03:01:53.500Z,-0.10
2022-12-14T03:04:20.703Z,0.00
2022-12-14T03:07:00.482Z,-0.10
2022-12-14T03:09:29.971Z,-0.20
2022-12-14T03:12:03.672Z,-0.30
2022-12-14T03:14:40.005Z,-0.40
2022-12-14T03:17:19.763Z,-0.50
2022-12-14T03:19:55.869Z,-0.60
2022-12-14T03:22:30.155Z,-0.60
2022-12-14T03:25:05.943Z,-0.50
2022-12-14T03:27:42.024Z,-0.50
2022-12-14T03:30:27.120Z,-0.40
2022-12-14T03:33:04.951Z,-0.40
2022-12-14T03:35:44.579Z,-0.40
2022-12-14T03:38:19.918Z,-0.50
2022-12-14T03:40:59.653Z,-0.70
2022-12-14T03:43:49.712Z,-0.70
2022-12-14T03:46:54.023Z,-0.80
2022-12-14T03:49:34.916Z,-0.70
2022-12-14T03:52:17.662Z,-0.80
2022-12-14T03:55:04.859Z,-0.70
2022-12-14T03:57:59.583Z,-0.70
2022-12-14T04:00:30.418Z,-0.90
2022-12-14T04:03:38.835Z,-1.00
2022-12-14T04:06:14.326Z,-1.00
2022-12-14T04:08:54.477Z,-0.90
2022-12-14T04:11:41.502Z,-0.90
2022-12-14T04:14:39.235Z,-0.90
2022-12-14T04:17:31.179Z,-0.90
2022-12-14T04:20:24.295Z,-1.00
2022-12-14T04:23:06.928Z,-1.00
2022-12-14T04:26:01.688Z,-0.90
2022-12-14T04:29:27.920Z,-1.00
2022-12-14T04:32:15.448Z,-1.00
2022-12-14T04:34:46.217Z,-1.00
2022-12-14T04:37:17.465Z,-1.10
2022-12-14T04:39:58.074Z,-1.10
2022-12-14T04:42:31.757Z,-1.10
2022-12-14T04:45:15.843Z,-1.20
2022-12-14T04:47:55.953Z,-1.20
2022-12-14T04:50:30.781Z,-1.20
2022-12-14T04:53:12.957Z,-1.30
2022-12-14T04:55:42.216Z,-1.30
2022-12-14T04:58:16.294Z,-1.30
2022-12-14T05:01:16.066Z,-1.40
2022-12-14T05:04:17.063Z,-1.40
2022-12-14T05:07:08.613Z,-1.40
2022-12-14T05:09:59.837Z,-1.50
2022-12-14T05:12:29.749Z,-1.50
2022-12-14T05:15:07.265Z,-1.40
2022-12-14T05:17:41.784Z,-1.30
2022-12-14T05:20:18.712Z,-1.30
2022-12-14T05:22:45.703Z,-1.20
2022-12-14T05:25:12.618Z,-1.20
2022-12-14T05:27:39.640Z,-1.20
2022-12-14T05:30:07.198Z,-1.20
2022-12-14T05:32:34.338Z,-1.20
2022-12-14T05:35:02.646Z,-1.10
2022-12-14T05:37:29.589Z,-1.10
2022-12-14T05:39:56.633Z,-1.10
2022-12-14T05:42:23.745Z,-1.10
2022-12-14T05:44:50.663Z,-1.10
2022-12-14T05:47:18.547Z,-1.20
2022-12-14T05:49:45.561Z,-1.20
2022-12-14T05:52:16.545Z,-1.10
2022-12-14T05:54:43.504Z,-1.10
2022-12-14T05:57:10.513Z,-1.20
2022-12-14T05:59:37.402Z,-1.20
2022-12-14T06:02:05.238Z,-1.20
2022-12-14T06:04:32.861Z,-1.20
2022-12-14T06:06:59.902Z,-1.10
2022-12-14T06:09:26.925Z,-1.00
2022-12-14T06:11:53.894Z,-0.90
2022-12-14T06:14:21.307Z,-0.90
2022-12-14T06:16:48.183Z,-1.10
2022-12-14T06:19:15.839Z,-1.20
2022-12-14T06:21:43.885Z,-1.30
2022-12-14T06:24:12.747Z,-1.50
2022-12-14T06:26:43.162Z,-1.50
2022-12-14T06:29:17.966Z,-1.60
2022-12-14T06:31:45.778Z,-1.40
2022-12-14T06:34:16.578Z,-1.40
2022-12-14T06:36:43.629Z,-1.40
2022-12-14T06:39:16.220Z,-1.30
2022-12-14T06:41:43.952Z,-1.20
2022-12-14T06:44:14.210Z,-1.10
2022-12-14T06:46:41.867Z,-1.20
2022-12-14T06:49:13.747Z,-1.20
2022-12-14T06:51:41.391Z,-1.30
2022-12-14T06:54:11.054Z,-1.40
2022-12-14T06:56:38.234Z,-1.50
2022-12-14T06:59:05.559Z,-1.70
2022-12-14T07:01:32.725Z,-1.70
2022-12-14T07:04:00.295Z,-1.70
2022-12-14T07:06:29.200Z,-1.60
2022-12-14T07:08:58.316Z,-1.40
2022-12-14T07:11:26.566Z,-1.30
2022-12-14T07:13:54.625Z,-1.10
2022-12-14T07:16:23.998Z,-1.00
2022-12-14T07:18:51.881Z,-0.90
2022-12-14T07:21:20.835Z,-0.80
2022-12-14T07:23:49.210Z,-0.80
2022-12-14T07:26:25.318Z,-0.80
2022-12-14T07:28:53.300Z,-0.80
2022-12-14T07:31:22.752Z,-0.90
2022-12-14T07:33:52.752Z,-0.90
2022-12-14T07:36:20.951Z,-0.90
2022-12-14T07:38:50.014Z,-0.90
2022-12-14T07:41:22.682Z,-0.80
2022-12-14T07:43:51.577Z,-0.80
2022-12-14T07:46:21.439Z,-0.70
2022-12-14T07:48:50.563Z,-0.80
2022-12-14T07:51:20.791Z,-0.70
2022-12-14T07:53:48.540Z,-0.70
2022-12-14T07:56:21.721Z,-0.80
2022-12-14T07:58:49.288Z,-0.80
2022-12-14T08:01:18.164Z,-0.90
2022-12-14T08:03:56.753Z,-0.90
2022-12-14T08:06:25.187Z,-0.90
2022-12-14T08:08:53.006Z,-0.90
2022-12-14T08:11:22.420Z,-0.80
2022-12-14T08:13:57.746Z,-0.80
2022-12-14T08:16:25.222Z,-0.80
2022-12-14T08:18:57.331Z,-0.80
2022-12-14T08:21:25.231Z,-0.80
2022-12-14T08:23:53.743Z,-0.90
2022-12-14T08:26:22.189Z,-1.00
2022-12-14T08:28:49.250Z,-1.00
2022-12-14T08:31:18.515Z,-0.90
2022-12-14T08:33:46.680Z,-0.80
2022-12-14T08:36:16.763Z,-0.70
2022-12-14T08:38:44.455Z,-0.70
2022-12-14T08:41:13.988Z,-0.60
2022-12-14T08:43:41.631Z,-0.60
2022-12-14T08:46:10.470Z,-0.60
2022-12-14T08:48:38.330Z,-0.70
2022-12-14T08:51:08.249Z,-0.70
2022-12-14T08:53:36.327Z,-0.80
2022-12-14T08:56:10.805Z,-0.80
2022-12-14T08:58:39.382Z,-0.80
2022-12-14T09:01:13.942Z,-0.80
2022-12-14T09:03:44.605Z,-0.80
2022-12-14T09:06:15.183Z,-0.90
2022-12-14T09:08:42.392Z,-0.80
2022-12-14T09:11:13.253Z,-0.80
2022-12-14T09:13:40.830Z,-0.70
2022-12-14T09:16:16.852Z,-0.60
2022-12-14T09:18:44.776Z,-0.50
2022-12-14T09:21:11.952Z,-0.40
2022-12-14T09:23:40.710Z,-0.40
2022-12-14T09:26:12.460Z,-0.50
2022-12-14T09:28:41.744Z,-0.70
2022-12-14T09:31:13.479Z,-0.70
2022-12-14T09:33:41.181Z,-0.80
2022-12-14T09:36:19.493Z,-0.80
2022-12-14T09:38:51.550Z,-0.80
2022-12-14T09:41:34.513Z,-0.80
2022-12-14T09:44:25.079Z,-0.80
2022-12-14T09:47:04.443Z,-0.70
2022-12-14T09:49:48.952Z,-0.30
2022-12-14T09:52:23.342Z,0.00
2022-12-14T09:54:50.671Z,0.30
2022-12-14T09:57:34.578Z,0.50
2022-12-14T10:00:01.620Z,0.60
2022-12-14T10:02:31.960Z,0.40
2022-12-14T10:05:12.819Z,0.50
2022-12-14T10:07:44.443Z,0.60
2022-12-14T10:10:24.993Z,0.60
2022-12-14T10:13:13.564Z,0.70
2022-12-14T10:15:57.247Z,0.80
2022-12-14T10:19:02.594Z,0.80
2022-12-14T10:22:13.355Z,0.90
2022-12-14T10:24:55.494Z,1.00
2022-12-14T10:27:25.758Z,1.10
2022-12-14T10:30:16.561Z,1.00
2022-12-14T10:32:54.562Z,0.80
2022-12-14T10:35:50.208Z,0.60
2022-12-14T10:38:30.626Z,0.40
2022-12-14T10:41:23.717Z,0.30
2022-12-14T10:44:39.684Z,0.20
2022-12-14T10:47:17.819Z,0.60
2022-12-14T10:49:58.211Z,0.70
2022-12-14T10:52:31.591Z,0.90
2022-12-14T10:55:13.849Z,1.20
2022-12-14T10:57:40.849Z,1.30
2022-12-14T11:00:23.102Z,1.20
2022-12-14T11:02:56.224Z,0.90
2022-12-14T11:05:41.754Z,0.60
2022-12-14T11:08:09.368Z,0.60
2022-12-14T11:10:39.803Z,0.70
2022-12-14T11:13:19.060Z,1.00
2022-12-14T11:15:48.712Z,1.50
2022-12-14T11:18:15.948Z,1.10
2022-12-14T11:21:01.613Z,0.80
2022-12-14T11:23:40.726Z,0.50
2022-12-14T11:26:16.547Z,0.40
2022-12-14T11:28:43.824Z,0.40
2022-12-14T11:31:32.142Z,0.50
2022-12-14T11:34:00.542Z,0.90
2022-12-14T11:36:41.440Z,0.80
2022-12-14T11:39:14.508Z,0.70
2022-12-14T11:42:16.402Z,0.60
2022-12-14T11:44:43.978Z,0.60
2022-12-14T11:47:26.381Z,0.60
2022-12-14T11:49:54.914Z,0.40
2022-12-14T11:52:27.113Z,0.30
2022-12-14T11:54:56.755Z,0.80
2022-12-14T11:57:35.134Z,1.10
2022-12-14T12:00:11.142Z,0.90
2022-12-14T12:02:49.065Z,0.80
2022-12-14T12:05:23.993Z,1.00
2022-12-14T12:07:50.863Z,1.30
2022-12-14T12:10:37.239Z,1.10
2022-12-14T12:13:07.308Z,0.70
2022-12-14T12:15:43.376Z,0.70
2022-12-14T12:18:34.641Z,1.00
2022-12-14T12:21:04.670Z,1.10
2022-12-14T12:23:47.357Z,1.00
2022-12-14T12:26:25.671Z,0.80
2022-12-14T12:29:02.879Z,1.00
2022-12-14T12:31:56.723Z,1.10
2022-12-14T12:34:29.436Z,1.50
2022-12-14T12:37:25.244Z,1.40
2022-12-14T12:39:52.327Z,1.30
2022-12-14T12:42:31.814Z,1.40
2022-12-14T12:45:04.845Z,1.50
2022-12-14T12:47:47.696Z,1.50
2022-12-14T12:50:18.507Z,1.60
2022-12-14T12:53:04.353Z,1.70
2022-12-14T12:55:36.959Z,1.70
2022-12-14T12:58:09.957Z,1.80
2022-12-14T13:00:40.415Z,1.70
2022-12-14T13:03:37.362Z,1.70
2022-12-14T13:06:45.944Z,1.80
2022-12-14T13:09:35.773Z,1.70
2022-12-14T13:12:05.409Z,1.70
2022-12-14T13:14:50.405Z,1.70
2022-12-14T13:17:33.944Z,1.60
2022-12-14T13:20:04.908Z,1.60
2022-12-14T13:22:34.378Z,1.60
2022-12-14T13:25:16.220Z,1.60
2022-12-14T13:28:07.529Z,1.80
2022-12-14T13:30:54.734Z,1.70
2022-12-14T13:33:30.441Z,1.40
2022-12-14T13:36:16.196Z,1.40
2022-12-14T13:38:52.445Z,1.50
2022-12-14T13:41:39.143Z,1.50
2022-12-14T13:44:24.942Z,1.50
2022-12-14T13:47:06.611Z,1.40
2022-12-14T13:49:34.016Z,1.40
2022-12-14T13:52:01.390Z,1.40
2022-12-14T13:54:35.024Z,1.30
2022-12-14T13:57:03.805Z,1.20
2022-12-14T13:59:37.074Z,1.40
2022-12-14T14:02:05.344Z,1.30
2022-12-14T14:04:36.551Z,1.30
2022-12-14T14:07:24.529Z,1.30
2022-12-14T14:10:06.579Z,1.50
2022-12-14T14:12:35.213Z,1.20
2022-12-14T14:15:07.941Z,1.20
2022-12-14T14:17:44.957Z,1.20
2022-12-14T14:20:39.215Z,1.00
2022-12-14T14:23:20.891Z,1.00
2022-12-14T14:25:52.072Z,1.00
2022-12-14T14:28:23.142Z,0.90
2022-12-14T14:30:56.896Z,0.80
2022-12-14T14:33:48.932Z,0.80
2022-12-14T14:36:33.808Z,0.50
2022-12-14T14:39:24.444Z,0.30
2022-12-14T14:41:54.622Z,0.30
2022-12-14T14:44:31.009Z,0.20
2022-12-14T14:46:58.232Z,0.20
2022-12-14T14:49:30.596Z,0.20
2022-12-14T14:52:17.683Z,0.10
2022-12-14T14:55:21.344Z,0.10
2022-12-14T14:58:01.177Z,0.10
2022-12-14T15:00:29.899Z,0.00
2022-12-14T15:02:58.427Z,-0.10
2022-12-14T15:05:42.113Z,0.00
2022-12-14T15:08:29.877Z,-0.10
2022-12-14T15:10:58.591Z,-0.20
2022-12-14T15:13:40.088Z,-0.40
2022-12-14T15:16:25.295Z,-0.40
2022-12-14T15:18:52.468Z,-0.40
2022-12-14T15:21:20.093Z,-0.30
2022-12-14T15:23:54.115Z,-0.20
2022-12-14T15:26:25.973Z,-0.20
2022-12-14T15:28:59.165Z,-0.20
2022-12-14T15:31:45.861Z,-0.40
2022-12-14T15:34:17.375Z,-0.30
2022-12-14T15:36:45.245Z,-0.40
2022-12-14T15:39:40.366Z,-0.40
2022-12-14T15:42:16.039Z,-0.40
2022-12-14T15:44:58.164Z,-0.30
2022-12-14T15:47:28.806Z,-0.20
2022-12-14T15:50:13.664Z,-0.30
2022-12-14T15:52:41.378Z,-0.30
2022-12-14T15:55:45.871Z,-0.40
2022-12-14T15:58:39.109Z,-0.30
2022-12-14T16:01:18.785Z,-0.30
2022-12-14T16:03:55.500Z,-0.30
2022-12-14T16:06:24.965Z,-0.30
2022-12-14T16:09:04.197Z,-0.40
2022-12-14T16:11:43.402Z,-0.40
2022-12-14T16:14:23.824Z,-0.40
2022-12-14T16:16:51.166Z,-0.40
2022-12-14T16:19:28.776Z,-0.40
2022-12-14T16:22:22.599Z,-0.40
2022-12-14T16:25:16.847Z,-0.30
2022-12-14T16:27:52.286Z,-0.40
2022-12-14T16:30:19.236Z,-0.40
2022-12-14T16:33:02.367Z,-0.40
2022-12-14T16:35:45.194Z,-0.30
2022-12-14T16:41:44.578Z,-0.30
2022-12-14T16:44:38.878Z,-0.30
2022-12-14T16:47:18.596Z,-0.30
2022-12-14T16:49:55.389Z,-0.30
2022-12-14T16:52:31.837Z,-0.30
2022-12-14T16:55:15.314Z,-0.40
2022-12-14T16:57:53.435Z,-0.40
2022-12-14T17:00:36.273Z,-0.40
2022-12-14T17:03:18.560Z,-0.60
2022-12-14T17:05:55.231Z,-0.60
2022-12-14T17:08:22.404Z,-0.50
2022-12-14T17:10:49.532Z,-0.50
2022-12-14T17:13:16.599Z,-0.40
2022-12-14T17:16:03.855Z,-0.30
2022-12-14T17:18:42.057Z,-0.30
2022-12-14T17:21:22.099Z,-0.20
2022-12-14T17:23:49.372Z,-0.30
2022-12-14T17:26:22.676Z,-0.30
2022-12-14T17:28:50.334Z,-0.30
2022-12-14T17:31:20.209Z,-0.30
2022-12-14T17:33:47.392Z,-0.20
2022-12-14T17:36:15.600Z,-0.20
2022-12-14T17:38:43.370Z,-0.10
2022-12-14T17:41:25.454Z,-0.10
2022-12-14T17:43:57.972Z,0.00
2022-12-14T17:46:26.113Z,0.00
2022-12-14T17:48:53.600Z,0.00
2022-12-14T17:51:26.701Z,0.10
2022-12-14T17:53:58.557Z,0.20
2022-12-14T17:56:25.742Z,0.20
2022-12-14T17:58:52.718Z,0.30
2022-12-14T18:01:23.799Z,0.20
2022-12-14T18:03:51.611Z,0.10
2022-12-14T18:06:18.983Z,0.10
2022-12-14T18:08:46.967Z,0.00
2022-12-14T18:11:18.343Z,0.10
2022-12-14T18:13:45.572Z,0.20
2022-12-14T18:16:19.853Z,0.10
2022-12-14T18:18:46.882Z,0.00
2022-12-14T18:21:19.468Z,0.00
2022-12-14T18:23:47.267Z,-0.10
2022-12-14T18:26:21.103Z,0.00
2022-12-14T18:28:49.556Z,-0.10
2022-12-14T18:31:37.442Z,-0.10
2022-12-14T18:34:05.371Z,-0.10
2022-12-14T18:36:32.550Z,-0.10
2022-12-14T18:38:59.517Z,0.00
2022-12-14T18:41:27.535Z,0.00
2022-12-14T18:43:55.745Z,-0.10
2022-12-14T18:46:23.654Z,-0.20
2022-12-14T18:48:50.800Z,-0.20
2022-12-14T18:51:23.820Z,-0.10
2022-12-14T18:53:51.846Z,-0.10
2022-12-14T18:56:22.144Z,0.00
2022-12-14T18:58:50.070Z,0.10
2022-12-14T19:01:19.404Z,0.00
2022-12-14T19:03:46.919Z,-0.20
2022-12-14T19:06:43.630Z,-0.30
2022-12-14T19:09:04.787Z,-0.40
2022-12-14T19:11:41.855Z,-0.40
2022-12-14T19:14:09.481Z,-0.40
2022-12-14T19:16:36.583Z,-0.40
2022-12-14T19:19:03.837Z,-0.30
2022-12-14T19:21:31.625Z,-0.40
2022-12-14T19:23:59.969Z,-0.40
2022-12-14T19:26:28.585Z,-0.50
2022-12-14T19:28:56.033Z,-0.50
2022-12-14T19:31:23.127Z,-0.50
2022-12-14T19:33:50.176Z,-0.50
2022-12-14T19:36:17.260Z,-0.50
2022-12-14T19:38:45.030Z,-0.50
2022-12-14T19:41:20.327Z,-0.50
2022-12-14T19:43:47.846Z,-0.50
2022-12-14T19:46:16.386Z,-0.50
2022-12-14T19:48:43.893Z,-0.50
2022-12-14T19:51:12.772Z,-0.50
2022-12-14T19:53:42.708Z,-0.50
2022-12-14T19:56:10.323Z,-0.70
2022-12-14T19:58:37.308Z,-0.70
2022-12-14T20:01:11.770Z,-0.60
2022-12-14T20:03:39.549Z,-0.60
2022-12-14T20:06:07.786Z,-0.60
2022-12-14T20:08:35.478Z,-0.60
2022-12-14T20:11:07.232Z,-0.60
2022-12-14T20:13:34.677Z,-0.60
2022-12-14T20:16:02.324Z,-0.60
2022-12-14T20:18:30.823Z,-0.60
2022-12-14T20:21:02.822Z,-0.60
2022-12-14T20:23:30.179Z,-0.60
2022-12-14T20:26:01.399Z,-0.50
2022-12-14T20:28:28.668Z,-0.50
2022-12-14T20:30:55.713Z,-0.40
2022-12-14T20:33:28.087Z,-0.40
2022-12-14T20:35:57.207Z,-0.50
2022-12-14T20:38:24.166Z,-0.50
2022-12-14T20:40:51.189Z,-0.50
2022-12-14T20:43:18.190Z,-0.50
2022-12-14T20:45:45.195Z,-0.50
2022-12-14T20:48:12.775Z,-0.50
2022-12-14T20:50:42.281Z,-0.50
2022-12-14T20:53:09.691Z,-0.60
2022-12-14T20:55:36.762Z,-0.60
2022-12-14T20:58:03.754Z,-0.60
2022-12-14T21:00:30.786Z,-0.60
2022-12-14T21:02:58.073Z,-0.50
2022-12-14T21:05:25.341Z,-0.40
2022-12-14T21:07:52.375Z,-0.40
2022-12-14T21:10:19.383Z,-0.40
2022-12-14T21:12:48.721Z,-0.30
2022-12-14T21:15:15.990Z,-0.30
2022-12-14T21:17:42.923Z,-0.20
2022-12-14T21:20:11.551Z,-0.20
2022-12-14T21:22:38.713Z,-0.20
2022-12-14T21:25:07.188Z,-0.20
2022-12-14T21:27:38.370Z,-0.20
2022-12-14T21:30:11.389Z,-0.20
2022-12-14T21:32:38.996Z,-0.20
2022-12-14T21:35:06.758Z,-0.20
2022-12-14T21:37:33.939Z,-0.20
2022-12-14T21:40:03.590Z,-0.10
2022-12-14T21:42:30.556Z,-0.10
2022-12-14T21:44:57.805Z,0.00
2022-12-14T21:47:27.328Z,-0.10
2022-12-14T21:49:54.506Z,0.00
2022-12-14T21:52:24.688Z,0.00
2022-12-14T21:54:51.867Z,0.10
2022-12-14T21:57:57.887Z,0.10
2022-12-14T22:00:24.851Z,0.10
2022-12-14T22:02:51.834Z,0.30
2022-12-14T22:05:18.931Z,0.40
2022-12-14T22:07:46.848Z,0.40
2022-12-14T22:10:13.882Z,0.50
2022-12-14T22:12:40.971Z,0.50
2022-12-14T22:15:08.486Z,0.50
2022-12-14T22:17:35.371Z,0.50
2022-12-14T22:20:02.702Z,0.60
2022-12-14T22:22:29.604Z,0.60
2022-12-14T22:24:56.511Z,0.50
2022-12-14T22:27:23.549Z,0.60
2022-12-14T22:29:50.447Z,0.60
2022-12-14T22:32:17.380Z,0.60
2022-12-14T22:34:45.012Z,0.60
2022-12-14T22:37:16.884Z,0.70
2022-12-14T22:39:44.119Z,0.80
2022-12-14T22:42:14.807Z,0.80
2022-12-14T22:44:41.851Z,0.80
2022-12-14T22:47:08.817Z,0.70
2022-12-14T22:49:35.846Z,0.60
2022-12-14T22:52:02.795Z,0.60
2022-12-14T22:54:30.133Z,0.60
2022-12-14T22:56:58.991Z,0.60
2022-12-14T22:59:36.636Z,0.50
2022-12-14T23:02:04.365Z,0.50
2022-12-14T23:04:31.676Z,0.50
2022-12-14T23:06:58.700Z,0.40
2022-12-14T23:09:44.338Z,0.30
2022-12-14T23:12:29.756Z,0.30
2022-12-14T23:15:15.489Z,0.20
2022-12-14T23:18:00.861Z,0.20
2022-12-14T23:20:46.792Z,0.20
2022-12-14T23:23:32.527Z,0.20
2022-12-14T23:26:22.679Z,0.30
2022-12-14T23:29:08.230Z,0.30
2022-12-14T23:31:53.830Z,0.40
2022-12-14T23:34:39.143Z,0.60
2022-12-14T23:37:24.538Z,0.60
2022-12-14T23:40:10.054Z,0.60
2022-12-14T23:42:55.502Z,0.70
2022-12-14T23:45:40.770Z,0.70
2022-12-14T23:48:26.690Z,0.80
2022-12-14T23:51:12.067Z,0.90
2022-12-14T23:53:57.300Z,0.90
2022-12-14T23:56:43.005Z,1.00
2022-12-14T23:59:32.352Z,1.00
